首页
METAR-TAF:

METAR-TAF

机场 :

Harbor Springs Municipal Airport

Harbor Springs, 密歇根州, 美国

纬度: 45-25-32N, 经度: 084-54-48W, 海拔: 209米

当前天气观测

该预报发布于27分钟前的20:35 UTC
风速8节,风向西转西南,有时为14节阵风
温度 14°C
湿度 88%
气压 1019 hPa
能見度: 16.1公里
散云层高于3600英尺

METAR: KMGN 062035Z AUTO 24008G14KT 10SM SCT036 14/12 A3009 RMK AO2 T01430128

时间: 17:02 (21:02 UTC)


TAF: 丢失

超过4000个机场的气象观测和天气预报(METAR&TAF报告)。

可查询的气象台以黄色和红色小点在地图上表示。

将鼠标移到小点上方,可查看气象台名称。

然后点击查看天气观测和预报。

如需切换地图:点击带黑十字的绿色按钮放大地图;点击带横线的绿色按钮缩小地图;或者点击绿色箭头查看邻近地区的地图。


METAR-TAF: